createdAt,value
2023-01-28T00:01:19.367Z,4.40
2023-01-28T00:03:50.649Z,4.40
2023-01-28T00:06:17.905Z,3.67
2023-01-28T00:08:45.035Z,4.40
2023-01-28T00:11:13.510Z,4.72
2023-01-28T00:13:40.553Z,4.03
2023-01-28T00:16:11.620Z,4.00
2023-01-28T00:18:38.560Z,3.85
2023-01-28T00:21:10.864Z,4.63
2023-01-28T00:26:11.172Z,3.50
2023-01-28T00:28:37.942Z,3.72
2023-01-28T00:31:14.396Z,3.97
2023-01-28T00:33:41.021Z,4.10
2023-01-28T00:36:08.209Z,4.22
2023-01-28T00:38:35.434Z,5.38
2023-01-28T00:41:29.322Z,4.95
2023-01-28T00:43:56.477Z,4.93
2023-01-28T00:46:25.409Z,5.53
2023-01-28T00:48:52.544Z,6.05
2023-01-28T00:51:20.793Z,5.45
2023-01-28T00:53:47.982Z,6.18
2023-01-28T00:56:16.923Z,6.75
2023-01-28T00:58:44.225Z,5.47
2023-01-28T01:01:14.608Z,6.68
2023-01-28T01:03:41.824Z,6.57
2023-01-28T01:06:09.475Z,6.30
2023-01-28T01:08:40.078Z,6.25
2023-01-28T01:11:08.116Z,6.40
2023-01-28T01:13:37.767Z,6.63
2023-01-28T01:16:09.867Z,6.63
2023-01-28T01:18:38.086Z,5.90
2023-01-28T01:21:11.898Z,5.93
2023-01-28T01:23:39.027Z,5.82
2023-01-28T01:26:06.493Z,5.82
2023-01-28T01:28:33.634Z,6.03
2023-01-28T01:31:07.700Z,5.60
2023-01-28T01:33:35.213Z,6.05
2023-01-28T01:36:01.932Z,6.18
2023-01-28T01:38:29.918Z,6.50
2023-01-28T01:40:58.804Z,5.95
2023-01-28T01:43:26.428Z,5.70
2023-01-28T01:45:59.145Z,5.93
2023-01-28T01:48:31.793Z,6.43
2023-01-28T01:51:04.431Z,6.25
2023-01-28T01:53:32.645Z,6.55
2023-01-28T01:56:04.913Z,6.38
2023-01-28T02:01:00.464Z,6.28
2023-01-28T02:03:37.131Z,5.95
2023-01-28T02:06:04.894Z,6.13
2023-01-28T02:08:31.586Z,5.60
2023-01-28T02:11:04.088Z,5.40
2023-01-28T02:13:35.573Z,5.50
2023-01-28T02:16:04.120Z,5.03
2023-01-28T02:18:32.566Z,4.70
2023-01-28T02:21:30.870Z,4.82
2023-01-28T02:24:22.494Z,5.38
2023-01-28T02:27:13.782Z,5.00
2023-01-28T02:29:46.787Z,5.75
2023-01-28T02:32:13.380Z,5.20
2023-01-28T02:35:01.297Z,4.80
2023-01-28T02:37:38.208Z,4.63
2023-01-28T02:40:20.158Z,4.45
2023-01-28T02:42:46.834Z,5.85
2023-01-28T02:45:21.878Z,5.25
2023-01-28T02:48:00.443Z,4.60
2023-01-28T02:50:49.337Z,4.03
2023-01-28T02:53:34.588Z,5.20
2023-01-28T02:56:29.530Z,4.55
2023-01-28T02:59:34.021Z,5.00
2023-01-28T03:02:10.088Z,4.70
2023-01-28T03:05:11.938Z,4.80
2023-01-28T03:07:39.428Z,4.27
2023-01-28T03:10:13.273Z,4.78
2023-01-28T03:13:00.248Z,5.13
2023-01-28T03:15:51.135Z,5.55
2023-01-28T03:18:45.431Z,4.95
2023-01-28T03:21:42.484Z,4.45
2023-01-28T03:24:33.936Z,4.32
2023-01-28T03:27:46.879Z,4.72
2023-01-28T03:33:38.158Z,4.68
2023-01-28T03:36:25.471Z,4.47
2023-01-28T03:38:52.285Z,4.93
2023-01-28T03:41:25.225Z,5.00
2023-01-28T03:43:53.572Z,4.60
2023-01-28T03:46:20.542Z,4.28
2023-01-28T03:48:47.276Z,5.32
2023-01-28T03:51:14.122Z,4.70
2023-01-28T03:53:41.265Z,5.40
2023-01-28T03:56:08.973Z,5.18
2023-01-28T03:58:56.567Z,4.72
2023-01-28T04:01:23.613Z,5.38
2023-01-28T04:03:50.222Z,5.68
2023-01-28T04:06:16.882Z,5.63
2023-01-28T04:08:49.047Z,5.00
2023-01-28T04:11:15.963Z,4.95
2023-01-28T04:13:43.351Z,4.90
2023-01-28T04:16:11.009Z,4.30
2023-01-28T04:18:37.971Z,4.95
2023-01-28T04:21:04.924Z,4.25
2023-01-28T04:23:31.671Z,5.28
2023-01-28T04:25:58.281Z,4.95
2023-01-28T04:28:24.903Z,5.07
2023-01-28T04:30:52.622Z,4.75
2023-01-28T04:33:19.333Z,5.03
2023-01-28T04:35:45.994Z,5.95
2023-01-28T04:38:12.622Z,4.47
2023-01-28T04:40:39.227Z,5.53
2023-01-28T04:43:05.831Z,6.00
2023-01-28T04:45:32.419Z,5.50
2023-01-28T04:47:59.065Z,5.18
2023-01-28T04:50:26.910Z,5.38
2023-01-28T04:52:53.560Z,5.38
2023-01-28T04:55:20.124Z,5.70
2023-01-28T04:57:48.159Z,5.40
2023-01-28T05:00:15.170Z,5.97
2023-01-28T05:02:41.842Z,5.18
2023-01-28T05:05:11.254Z,4.97
2023-01-28T05:07:38.151Z,4.90
2023-01-28T05:10:05.690Z,5.65
2023-01-28T05:12:34.126Z,5.43
2023-01-28T05:15:01.323Z,5.20
2023-01-28T05:17:28.981Z,5.93
2023-01-28T05:19:55.799Z,5.88
2023-01-28T05:22:22.752Z,5.90
2023-01-28T05:24:49.464Z,4.03
2023-01-28T05:27:16.017Z,5.45
2023-01-28T05:29:42.859Z,5.55
2023-01-28T05:32:09.686Z,6.32
2023-01-28T05:34:36.319Z,5.60
2023-01-28T05:37:03.109Z,4.30
2023-01-28T05:39:30.184Z,5.30
2023-01-28T05:41:57.013Z,6.40
2023-01-28T05:44:23.616Z,5.57
2023-01-28T05:46:50.207Z,5.55
2023-01-28T05:49:16.861Z,5.35
2023-01-28T05:51:43.593Z,5.50
2023-01-28T05:54:10.728Z,5.90
2023-01-28T05:56:37.341Z,5.68
2023-01-28T05:59:05.503Z,6.00
2023-01-28T06:01:32.176Z,6.32
2023-01-28T06:03:59.381Z,6.07
2023-01-28T06:06:25.957Z,6.25
2023-01-28T06:08:52.578Z,6.80
2023-01-28T06:11:19.963Z,5.60
2023-01-28T06:13:46.612Z,6.03
2023-01-28T06:16:13.367Z,4.80
2023-01-28T06:18:41.420Z,6.00
2023-01-28T06:21:08.429Z,5.15
2023-01-28T06:23:35.118Z,6.38
2023-01-28T06:26:01.759Z,5.97
2023-01-28T06:28:28.433Z,6.28
2023-01-28T06:30:55.498Z,7.45
2023-01-28T06:33:22.693Z,6.15
2023-01-28T06:35:49.314Z,6.80
2023-01-28T06:38:15.919Z,7.18
2023-01-28T06:40:42.556Z,6.80
2023-01-28T06:43:09.152Z,6.25
2023-01-28T06:45:35.761Z,6.55
2023-01-28T06:48:04.241Z,7.13
2023-01-28T06:50:31.055Z,7.10
2023-01-28T06:52:57.668Z,6.78
2023-01-28T06:55:24.251Z,7.70
2023-01-28T06:57:50.883Z,5.68
2023-01-28T07:00:18.570Z,6.45
2023-01-28T07:02:45.443Z,6.85
2023-01-28T07:05:12.089Z,6.60
2023-01-28T07:07:41.445Z,7.63
2023-01-28T07:10:09.121Z,5.93
2023-01-28T07:12:35.820Z,7.18
2023-01-28T07:15:02.547Z,7.15
2023-01-28T07:17:29.198Z,7.65
2023-01-28T07:19:55.900Z,6.45
2023-01-28T07:22:22.486Z,6.43
2023-01-28T07:24:49.206Z,7.20
2023-01-28T07:27:15.986Z,6.93
2023-01-28T07:29:42.627Z,7.55
2023-01-28T07:32:09.372Z,6.47
2023-01-28T07:34:39.903Z,6.93
2023-01-28T07:37:06.847Z,6.88
2023-01-28T07:39:34.603Z,8.15
2023-01-28T07:42:02.015Z,7.60
2023-01-28T07:44:28.605Z,7.28
2023-01-28T07:46:55.293Z,6.20
2023-01-28T07:49:21.906Z,6.47
2023-01-28T07:51:50.581Z,6.47
2023-01-28T07:54:17.697Z,6.28
2023-01-28T07:56:44.334Z,6.50
2023-01-28T07:59:11.044Z,7.28
2023-01-28T08:01:37.666Z,7.10
2023-01-28T08:04:04.454Z,6.28
2023-01-28T08:06:31.376Z,6.78
2023-01-28T08:08:58.007Z,6.32
2023-01-28T08:11:24.681Z,7.30
2023-01-28T08:13:51.253Z,7.10
2023-01-28T08:16:17.972Z,6.80
2023-01-28T08:18:44.613Z,6.80
2023-01-28T08:21:11.196Z,6.43
2023-01-28T08:23:38.116Z,7.07
2023-01-28T08:26:05.855Z,6.47
2023-01-28T08:28:32.554Z,5.97
2023-01-28T08:31:02.763Z,5.75
2023-01-28T08:33:29.731Z,6.95
2023-01-28T08:35:56.566Z,6.53
2023-01-28T08:38:23.723Z,6.07
2023-01-28T08:40:56.632Z,6.38
2023-01-28T08:43:23.582Z,5.95
2023-01-28T08:45:50.465Z,6.05
2023-01-28T08:48:18.865Z,6.40
2023-01-28T08:50:45.920Z,5.55
2023-01-28T08:53:15.518Z,6.55
2023-01-28T08:55:42.329Z,7.85
2023-01-28T08:58:14.472Z,6.60
2023-01-28T09:00:41.938Z,6.53
2023-01-28T09:03:09.217Z,7.18
2023-01-28T09:05:37.524Z,6.55
2023-01-28T09:08:11.093Z,6.43
2023-01-28T09:10:38.143Z,6.55
2023-01-28T09:13:09.778Z,7.25
2023-01-28T09:15:37.775Z,6.72
2023-01-28T09:18:05.185Z,7.43
2023-01-28T09:20:35.233Z,6.57
2023-01-28T09:23:02.558Z,7.10
2023-01-28T09:25:29.841Z,7.82
2023-01-28T09:27:57.642Z,7.03
2023-01-28T09:30:24.720Z,7.72
2023-01-28T09:32:52.531Z,9.75
2023-01-28T09:35:19.779Z,7.50
2023-01-28T09:37:47.011Z,7.15
2023-01-28T09:40:34.560Z,7.50
2023-01-28T09:43:33.777Z,9.93
2023-01-28T09:46:04.519Z,7.20
2023-01-28T09:48:47.733Z,7.60
2023-01-28T09:51:47.314Z,7.63
2023-01-28T09:54:34.728Z,8.35
2023-01-28T09:57:07.138Z,7.18
2023-01-28T09:59:36.231Z,7.35
2023-01-28T10:02:26.181Z,6.75
2023-01-28T10:05:03.480Z,8.02
2023-01-28T10:07:47.556Z,8.00
2023-01-28T10:10:22.708Z,6.90
2023-01-28T10:13:07.663Z,8.45
2023-01-28T10:15:54.697Z,9.60
2023-01-28T10:18:35.815Z,7.65
2023-01-28T10:21:12.743Z,8.35
2023-01-28T10:24:01.583Z,7.72
2023-01-28T10:26:34.896Z,7.43
2023-01-28T10:29:11.920Z,7.60
2023-01-28T10:32:03.189Z,6.97
2023-01-28T10:34:29.908Z,7.80
2023-01-28T10:36:57.792Z,6.47
2023-01-28T10:39:26.454Z,8.10
2023-01-28T10:41:58.319Z,7.72
2023-01-28T10:47:01.734Z,6.65
2023-01-28T10:49:31.501Z,7.07
2023-01-28T10:51:58.959Z,5.68
2023-01-28T10:54:29.074Z,6.65
2023-01-28T10:57:00.936Z,6.65
2023-01-28T10:59:30.330Z,6.53
2023-01-28T11:02:01.257Z,7.07
2023-01-28T11:04:33.235Z,7.28
2023-01-28T11:07:16.317Z,7.25
2023-01-28T11:09:47.051Z,6.13
2023-01-28T11:12:21.954Z,6.97
2023-01-28T11:15:07.095Z,7.05
2023-01-28T11:17:38.222Z,7.18
2023-01-28T11:20:19.970Z,7.07
2023-01-28T11:22:48.401Z,8.15
2023-01-28T11:25:44.153Z,7.30
2023-01-28T11:28:20.215Z,7.32
2023-01-28T11:30:52.760Z,5.95
2023-01-28T11:33:29.150Z,6.95
2023-01-28T11:35:58.328Z,6.80
2023-01-28T11:38:26.368Z,6.78
2023-01-28T11:40:55.233Z,6.68
2023-01-28T11:43:23.920Z,7.35
2023-01-28T11:46:20.920Z,7.30
2023-01-28T11:49:32.259Z,7.20
2023-01-28T11:52:17.459Z,7.10
2023-01-28T11:55:18.214Z,5.75
2023-01-28T11:58:03.364Z,7.03
2023-01-28T12:00:45.466Z,5.78
2023-01-28T12:03:50.088Z,6.30
2023-01-28T12:06:40.339Z,5.70
2023-01-28T12:09:49.446Z,6.55
2023-01-28T12:12:39.137Z,7.57
2023-01-28T12:15:43.224Z,5.70
2023-01-28T12:18:18.954Z,6.28
2023-01-28T12:21:10.644Z,8.65
2023-01-28T12:23:48.128Z,6.87
2023-01-28T12:26:46.334Z,7.28
2023-01-28T12:29:16.046Z,7.93
2023-01-28T12:32:19.055Z,7.47
2023-01-28T12:35:22.811Z,8.07
2023-01-28T12:37:58.494Z,6.65
2023-01-28T12:40:50.606Z,8.27
2023-01-28T12:43:47.076Z,7.70
2023-01-28T12:46:37.896Z,7.65
2023-01-28T12:49:19.986Z,7.88
2023-01-28T12:52:11.200Z,7.65
2023-01-28T12:54:49.773Z,8.05
2023-01-28T12:57:27.097Z,5.32
2023-01-28T13:00:18.197Z,7.47
2023-01-28T13:02:57.484Z,7.18
2023-01-28T13:05:34.203Z,7.00
2023-01-28T13:08:10.599Z,7.20
2023-01-28T13:10:45.769Z,6.75
2023-01-28T13:13:34.053Z,7.63
2023-01-28T13:16:02.749Z,7.68
2023-01-28T13:18:41.667Z,6.95
2023-01-28T13:21:15.625Z,7.85
2023-01-28T13:23:50.213Z,8.48
2023-01-28T13:26:19.619Z,8.18
2023-01-28T13:28:48.654Z,7.38
2023-01-28T13:31:17.901Z,7.63
2023-01-28T13:33:53.659Z,6.47
2023-01-28T13:36:28.555Z,7.07
2023-01-28T13:39:06.737Z,6.97
2023-01-28T13:41:42.545Z,7.00
2023-01-28T13:44:25.432Z,7.60
2023-01-28T13:46:58.566Z,8.85
2023-01-28T13:49:40.196Z,7.90
2023-01-28T13:52:23.759Z,8.27
2023-01-28T13:55:04.292Z,8.82
2023-01-28T13:57:47.749Z,8.32
2023-01-28T14:00:24.536Z,7.18
2023-01-28T14:02:52.726Z,8.32
2023-01-28T14:05:39.410Z,7.45
2023-01-28T14:08:33.331Z,8.30
2023-01-28T14:11:34.112Z,6.70
2023-01-28T14:14:24.723Z,6.68
2023-01-28T14:17:10.209Z,7.35
2023-01-28T14:19:38.540Z,12.98
2023-01-28T14:22:09.617Z,10.27
2023-01-28T14:24:40.652Z,9.23
2023-01-28T14:27:36.014Z,6.82
2023-01-28T14:30:25.817Z,7.97
2023-01-28T14:32:54.324Z,8.32
2023-01-28T14:35:32.996Z,7.80
2023-01-28T14:38:00.981Z,8.32
2023-01-28T14:40:30.014Z,8.68
2023-01-28T14:42:58.356Z,7.90
2023-01-28T14:45:55.271Z,7.28
2023-01-28T14:48:26.221Z,7.13
2023-01-28T14:51:03.134Z,8.07
2023-01-28T14:53:54.276Z,7.72
2023-01-28T14:56:36.391Z,7.68
2023-01-28T14:59:16.030Z,7.68
2023-01-28T15:01:47.655Z,8.00
2023-01-28T15:04:43.401Z,6.88
2023-01-28T15:07:25.567Z,6.60
2023-01-28T15:10:15.995Z,6.75
2023-01-28T15:12:48.327Z,6.20
2023-01-28T15:17:48.222Z,7.50
2023-01-28T15:20:24.099Z,5.47
2023-01-28T15:22:53.182Z,6.93
2023-01-28T15:25:22.913Z,5.53
2023-01-28T15:27:52.364Z,6.95
2023-01-28T15:30:26.597Z,6.53
2023-01-28T15:33:13.014Z,5.95
2023-01-28T15:35:49.767Z,6.95
2023-01-28T15:38:19.745Z,7.28
2023-01-28T15:40:56.936Z,5.85
2023-01-28T15:43:33.556Z,6.05
2023-01-28T15:46:01.563Z,6.50
2023-01-28T15:48:33.952Z,8.25
2023-01-28T15:51:09.085Z,13.35
2023-01-28T15:53:44.927Z,6.30
2023-01-28T15:56:13.951Z,5.88
2023-01-28T15:58:41.851Z,6.78
2023-01-28T16:01:08.642Z,6.20
2023-01-28T16:03:40.101Z,6.78
2023-01-28T16:06:12.795Z,7.17
2023-01-28T16:08:41.259Z,7.22
2023-01-28T16:11:10.179Z,7.65
2023-01-28T16:13:42.941Z,7.30
2023-01-28T16:16:10.488Z,7.10
2023-01-28T16:18:53.617Z,7.90
2023-01-28T16:21:32.489Z,6.50
2023-01-28T16:24:21.034Z,7.60
2023-01-28T16:27:00.393Z,8.10
2023-01-28T16:29:29.307Z,8.07
2023-01-28T16:31:59.963Z,7.82
2023-01-28T16:34:30.331Z,6.75
2023-01-28T16:37:00.411Z,8.52
2023-01-28T16:39:27.136Z,7.63
2023-01-28T16:41:53.986Z,7.28
2023-01-28T16:44:20.619Z,7.90
2023-01-28T16:46:47.309Z,7.85
2023-01-28T16:49:14.041Z,8.07
2023-01-28T16:51:44.114Z,8.20
2023-01-28T16:54:16.751Z,8.35
2023-01-28T16:56:47.620Z,8.25
2023-01-28T16:59:16.317Z,7.72
2023-01-28T17:01:44.344Z,7.47
2023-01-28T17:04:12.752Z,7.22
2023-01-28T17:06:43.682Z,7.07
2023-01-28T17:09:11.929Z,8.57
2023-01-28T17:11:39.785Z,8.15
2023-01-28T17:14:06.936Z,8.68
2023-01-28T17:16:33.636Z,6.93
2023-01-28T17:19:00.300Z,8.27
2023-01-28T17:21:27.050Z,8.45
2023-01-28T17:23:53.751Z,8.50
2023-01-28T17:26:23.530Z,8.30
2023-01-28T17:28:53.862Z,9.20
2023-01-28T17:31:21.937Z,9.07
2023-01-28T17:33:54.934Z,8.57
2023-01-28T17:36:22.105Z,9.82
2023-01-28T17:38:48.776Z,10.27
2023-01-28T17:41:17.362Z,9.10
2023-01-28T17:43:44.464Z,9.45
2023-01-28T17:46:15.419Z,9.07
2023-01-28T17:48:44.039Z,9.20
2023-01-28T17:51:10.715Z,9.82
2023-01-28T17:53:37.636Z,9.65
2023-01-28T17:56:05.236Z,10.60
2023-01-28T17:58:32.150Z,10.48
2023-01-28T18:00:58.783Z,9.50
2023-01-28T18:03:25.364Z,7.57
2023-01-28T18:06:01.248Z,8.20
2023-01-28T18:08:28.229Z,8.38
2023-01-28T18:10:55.632Z,7.80
2023-01-28T18:13:22.405Z,8.25
2023-01-28T18:15:49.022Z,8.07
2023-01-28T18:18:15.629Z,8.65
2023-01-28T18:20:42.305Z,7.65
2023-01-28T18:23:08.971Z,9.50
2023-01-28T18:25:35.683Z,9.13
2023-01-28T18:28:02.534Z,7.80
2023-01-28T18:30:30.192Z,8.27
2023-01-28T18:32:56.858Z,9.73
2023-01-28T18:35:23.520Z,8.93
2023-01-28T18:37:50.215Z,22.73
2023-01-28T18:40:16.990Z,14.20
2023-01-28T18:42:43.598Z,8.32
2023-01-28T18:45:10.651Z,8.60
2023-01-28T18:47:37.256Z,8.15
2023-01-28T18:50:04.242Z,8.38
2023-01-28T18:52:30.857Z,8.25
2023-01-28T18:54:58.927Z,8.50
2023-01-28T18:57:25.567Z,8.88
2023-01-28T18:59:52.374Z,8.52
2023-01-28T19:02:19.066Z,9.68
2023-01-28T19:04:45.713Z,10.02
2023-01-28T19:07:12.385Z,11.27
2023-01-28T19:09:39.033Z,10.50
2023-01-28T19:12:05.791Z,10.40
2023-01-28T19:14:32.726Z,10.98
2023-01-28T19:16:59.336Z,10.77
2023-01-28T19:19:26.384Z,9.55
2023-01-28T19:21:53.542Z,9.55
2023-01-28T19:24:20.574Z,9.48
2023-01-28T19:26:47.197Z,9.60
2023-01-28T19:29:15.901Z,10.40
2023-01-28T19:31:44.321Z,10.20
2023-01-28T19:34:11.198Z,9.68
2023-01-28T19:36:38.139Z,12.73
2023-01-28T19:39:07.716Z,10.75
2023-01-28T19:41:35.233Z,11.10
2023-01-28T19:44:01.921Z,12.23
2023-01-28T19:46:28.615Z,10.32
2023-01-28T19:48:55.412Z,9.65
2023-01-28T19:51:22.799Z,8.77
2023-01-28T19:53:54.103Z,8.68
2023-01-28T19:56:23.308Z,8.97
2023-01-28T19:58:50.428Z,8.77
2023-01-28T20:01:20.111Z,9.35
2023-01-28T20:03:59.650Z,8.18
2023-01-28T20:06:28.464Z,8.50
2023-01-28T20:08:57.189Z,8.52
2023-01-28T20:11:24.411Z,8.65
2023-01-28T20:13:52.195Z,8.98
2023-01-28T20:16:23.554Z,8.27
2023-01-28T20:18:55.701Z,8.90
2023-01-28T20:23:51.690Z,8.73
2023-01-28T20:26:21.336Z,10.15
2023-01-28T20:28:49.299Z,9.38
2023-01-28T20:31:16.462Z,8.93
2023-01-28T20:33:44.246Z,9.05
2023-01-28T20:36:13.183Z,10.75
2023-01-28T20:38:42.816Z,9.45
2023-01-28T20:41:12.106Z,9.95
2023-01-28T20:43:41.177Z,9.80
2023-01-28T20:46:14.144Z,10.43
2023-01-28T20:48:41.416Z,9.15
2023-01-28T20:51:10.278Z,9.18
2023-01-28T20:53:37.445Z,10.63
2023-01-28T20:56:06.154Z,11.23
2023-01-28T20:58:33.346Z,10.30
2023-01-28T21:01:00.417Z,9.57
2023-01-28T21:03:27.004Z,11.38
2023-01-28T21:05:53.820Z,11.05
2023-01-28T21:08:20.414Z,11.85
2023-01-28T21:10:47.329Z,10.95
2023-01-28T21:13:15.337Z,10.38
2023-01-28T21:15:51.742Z,11.45
2023-01-28T21:18:18.387Z,10.07
2023-01-28T21:20:45.289Z,10.80
2023-01-28T21:23:14.935Z,10.80
2023-01-28T21:25:50.204Z,8.65
2023-01-28T21:28:17.495Z,10.25
2023-01-28T21:30:44.271Z,11.52
2023-01-28T21:33:11.248Z,10.65
2023-01-28T21:35:39.659Z,10.50
2023-01-28T21:38:06.800Z,10.10
2023-01-28T21:40:34.892Z,10.93
2023-01-28T21:43:02.121Z,10.30
2023-01-28T21:45:29.055Z,9.68
2023-01-28T21:47:55.675Z,10.48
2023-01-28T21:50:23.201Z,9.88
2023-01-28T21:52:50.964Z,10.27
2023-01-28T21:55:18.288Z,11.50
2023-01-28T21:57:44.927Z,10.50
2023-01-28T22:00:13.013Z,8.73
2023-01-28T22:02:40.541Z,9.45
2023-01-28T22:05:07.586Z,9.07
2023-01-28T22:07:34.233Z,10.60
2023-01-28T22:10:00.889Z,8.60
2023-01-28T22:12:28.267Z,11.05
2023-01-28T22:14:55.424Z,10.43
2023-01-28T22:17:22.105Z,6.93
2023-01-28T22:19:48.794Z,9.48
2023-01-28T22:22:16.057Z,10.93
2023-01-28T22:24:42.809Z,10.80
2023-01-28T22:27:09.548Z,8.60
2023-01-28T22:29:36.135Z,10.77
2023-01-28T22:32:04.824Z,11.15
2023-01-28T22:34:31.766Z,10.63
2023-01-28T22:36:58.532Z,11.13
2023-01-28T22:39:25.164Z,10.98
2023-01-28T22:41:51.922Z,9.30
2023-01-28T22:44:20.048Z,9.55
2023-01-28T22:46:47.253Z,9.68
2023-01-28T22:49:15.140Z,10.05
2023-01-28T22:51:42.662Z,10.23
2023-01-28T22:54:11.139Z,8.45
2023-01-28T22:56:38.376Z,9.75
2023-01-28T22:59:05.015Z,9.30
2023-01-28T23:01:32.648Z,9.50
2023-01-28T23:03:59.695Z,12.00
2023-01-28T23:06:27.943Z,9.45
2023-01-28T23:08:56.428Z,9.52
2023-01-28T23:11:28.435Z,10.10
2023-01-28T23:14:18.655Z,8.93
2023-01-28T23:17:04.599Z,8.68
2023-01-28T23:19:49.707Z,7.97
2023-01-28T23:22:45.782Z,9.68
2023-01-28T23:25:12.651Z,9.50
2023-01-28T23:27:39.273Z,10.15
2023-01-28T23:30:10.239Z,10.05
2023-01-28T23:32:40.149Z,8.95
2023-01-28T23:35:11.039Z,8.70
2023-01-28T23:37:37.861Z,9.43
2023-01-28T23:40:06.032Z,9.80
2023-01-28T23:42:32.645Z,8.38
2023-01-28T23:44:59.711Z,8.50
2023-01-28T23:47:26.578Z,8.88
2023-01-28T23:49:53.307Z,9.07
2023-01-28T23:52:20.161Z,7.88
2023-01-28T23:54:46.802Z,7.82
2023-01-28T23:57:13.419Z,9.27
2023-01-28T23:59:40.025Z,8.55
